sensor_id;sensor_type;location;lat;lon;timestamp;P1;durP1;ratioP1;P2;durP2;ratioP2
12308;SDS011;6217;48.150;17.142;2023-03-01T00:03:25;28.08;;;13.65;;
12308;SDS011;6217;48.150;17.142;2023-03-01T00:07:32;24.08;;;13.80;;
12308;SDS011;6217;48.150;17.142;2023-03-01T00:11:38;32.65;;;17.25;;
12308;SDS011;6217;48.150;17.142;2023-03-01T00:15:44;32.00;;;17.15;;
12308;SDS011;6217;48.150;17.142;2023-03-01T00:19:50;36.92;;;17.20;;
12308;SDS011;6217;48.150;17.142;2023-03-01T00:23:56;33.55;;;17.77;;
12308;SDS011;6217;48.150;17.142;2023-03-01T00:28:02;31.52;;;16.95;;
12308;SDS011;6217;48.150;17.142;2023-03-01T00:32:08;31.70;;;16.85;;
12308;SDS011;6217;48.150;17.142;2023-03-01T00:36:14;32.67;;;16.73;;
12308;SDS011;6217;48.150;17.142;2023-03-01T00:40:21;31.48;;;17.90;;
12308;SDS011;6217;48.150;17.142;2023-03-01T00:44:27;29.30;;;16.65;;
12308;SDS011;6217;48.150;17.142;2023-03-01T00:48:33;32.30;;;18.58;;
12308;SDS011;6217;48.150;17.142;2023-03-01T00:52:40;26.75;;;17.08;;
12308;SDS011;6217;48.150;17.142;2023-03-01T00:56:46;34.22;;;19.73;;
12308;SDS011;6217;48.150;17.142;2023-03-01T01:00:51;35.80;;;19.83;;
12308;SDS011;6217;48.150;17.142;2023-03-01T01:04:57;38.17;;;17.85;;
12308;SDS011;6217;48.150;17.142;2023-03-01T01:09:04;31.15;;;17.52;;
12308;SDS011;6217;48.150;17.142;2023-03-01T01:13:12;25.20;;;15.50;;
12308;SDS011;6217;48.150;17.142;2023-03-01T01:17:18;27.88;;;15.80;;
12308;SDS011;6217;48.150;17.142;2023-03-01T01:21:24;33.58;;;17.17;;
12308;SDS011;6217;48.150;17.142;2023-03-01T01:25:33;34.90;;;17.88;;
12308;SDS011;6217;48.150;17.142;2023-03-01T01:29:41;32.70;;;18.55;;
12308;SDS011;6217;48.150;17.142;2023-03-01T01:33:47;26.30;;;15.48;;
12308;SDS011;6217;48.150;17.142;2023-03-01T01:37:53;29.45;;;17.42;;
12308;SDS011;6217;48.150;17.142;2023-03-01T01:41:59;29.33;;;15.57;;
12308;SDS011;6217;48.150;17.142;2023-03-01T01:46:13;32.60;;;16.67;;
12308;SDS011;6217;48.150;17.142;2023-03-01T01:50:30;27.15;;;15.90;;
12308;SDS011;6217;48.150;17.142;2023-03-01T01:54:50;27.77;;;15.85;;
12308;SDS011;6217;48.150;17.142;2023-03-01T01:59:17;22.65;;;14.93;;
12308;SDS011;6217;48.150;17.142;2023-03-01T02:03:25;25.33;;;14.32;;
12308;SDS011;6217;48.150;17.142;2023-03-01T02:07:38;24.10;;;13.98;;
12308;SDS011;6217;48.150;17.142;2023-03-01T02:11:46;30.92;;;15.45;;
12308;SDS011;6217;48.150;17.142;2023-03-01T02:15:54;23.20;;;14.10;;
12308;SDS011;6217;48.150;17.142;2023-03-01T02:20:07;20.88;;;14.55;;
12308;SDS011;6217;48.150;17.142;2023-03-01T02:24:52;26.85;;;15.98;;
12308;SDS011;6217;48.150;17.142;2023-03-01T02:29:29;24.40;;;15.52;;
12308;SDS011;6217;48.150;17.142;2023-03-01T02:33:36;25.00;;;14.40;;
12308;SDS011;6217;48.150;17.142;2023-03-01T02:37:43;25.25;;;15.13;;
12308;SDS011;6217;48.150;17.142;2023-03-01T02:41:51;25.25;;;16.58;;
12308;SDS011;6217;48.150;17.142;2023-03-01T02:46:04;25.60;;;14.15;;
12308;SDS011;6217;48.150;17.142;2023-03-01T02:50:22;22.25;;;14.25;;
12308;SDS011;6217;48.150;17.142;2023-03-01T02:54:39;20.02;;;13.32;;
12308;SDS011;6217;48.150;17.142;2023-03-01T02:58:58;21.23;;;13.18;;
12308;SDS011;6217;48.150;17.142;2023-03-01T03:03:07;25.63;;;12.93;;
12308;SDS011;6217;48.150;17.142;2023-03-01T03:07:13;21.75;;;14.07;;
12308;SDS011;6217;48.150;17.142;2023-03-01T03:11:19;18.63;;;14.18;;
12308;SDS011;6217;48.150;17.142;2023-03-01T03:15:26;26.23;;;13.60;;
12308;SDS011;6217;48.150;17.142;2023-03-01T03:19:34;24.25;;;13.85;;
12308;SDS011;6217;48.150;17.142;2023-03-01T03:23:40;30.08;;;15.70;;
12308;SDS011;6217;48.150;17.142;2023-03-01T03:27:46;22.25;;;13.98;;
12308;SDS011;6217;48.150;17.142;2023-03-01T03:31:54;23.20;;;13.70;;
12308;SDS011;6217;48.150;17.142;2023-03-01T03:36:00;24.40;;;13.60;;
12308;SDS011;6217;48.150;17.142;2023-03-01T03:40:06;20.70;;;13.32;;
12308;SDS011;6217;48.150;17.142;2023-03-01T03:44:20;19.83;;;12.80;;
12308;SDS011;6217;48.150;17.142;2023-03-01T03:48:26;21.20;;;13.00;;
12308;SDS011;6217;48.150;17.142;2023-03-01T03:52:32;20.48;;;12.38;;
12308;SDS011;6217;48.150;17.142;2023-03-01T03:56:38;23.83;;;12.98;;
12308;SDS011;6217;48.150;17.142;2023-03-01T04:00:44;23.60;;;13.77;;
12308;SDS011;6217;48.150;17.142;2023-03-01T04:04:52;24.65;;;13.23;;
12308;SDS011;6217;48.150;17.142;2023-03-01T04:08:58;18.98;;;11.75;;
12308;SDS011;6217;48.150;17.142;2023-03-01T04:13:09;17.90;;;10.82;;
12308;SDS011;6217;48.150;17.142;2023-03-01T04:17:20;17.48;;;11.63;;
12308;SDS011;6217;48.150;17.142;2023-03-01T04:21:26;16.10;;;10.50;;
12308;SDS011;6217;48.150;17.142;2023-03-01T04:25:32;18.13;;;10.65;;
12308;SDS011;6217;48.150;17.142;2023-03-01T04:29:38;22.17;;;12.82;;
12308;SDS011;6217;48.150;17.142;2023-03-01T04:33:54;18.58;;;10.07;;
12308;SDS011;6217;48.150;17.142;2023-03-01T04:38:01;18.17;;;10.77;;
12308;SDS011;6217;48.150;17.142;2023-03-01T04:42:07;22.98;;;11.35;;
12308;SDS011;6217;48.150;17.142;2023-03-01T04:46:14;15.13;;;9.82;;
12308;SDS011;6217;48.150;17.142;2023-03-01T04:50:23;19.85;;;11.27;;
12308;SDS011;6217;48.150;17.142;2023-03-01T04:54:31;17.83;;;10.80;;
12308;SDS011;6217;48.150;17.142;2023-03-01T04:58:37;19.70;;;13.23;;
12308;SDS011;6217;48.150;17.142;2023-03-01T05:02:43;19.60;;;11.82;;
12308;SDS011;6217;48.150;17.142;2023-03-01T05:06:49;16.25;;;11.10;;
12308;SDS011;6217;48.150;17.142;2023-03-01T05:10:55;16.30;;;9.00;;
12308;SDS011;6217;48.150;17.142;2023-03-01T05:15:01;17.27;;;9.40;;
12308;SDS011;6217;48.150;17.142;2023-03-01T05:19:12;16.98;;;9.57;;
12308;SDS011;6217;48.150;17.142;2023-03-01T05:23:20;20.10;;;10.60;;
12308;SDS011;6217;48.150;17.142;2023-03-01T05:27:26;20.13;;;10.73;;
12308;SDS011;6217;48.150;17.142;2023-03-01T05:31:32;18.38;;;10.45;;
12308;SDS011;6217;48.150;17.142;2023-03-01T05:35:42;15.18;;;9.90;;
12308;SDS011;6217;48.150;17.142;2023-03-01T05:39:49;19.65;;;11.18;;
12308;SDS011;6217;48.150;17.142;2023-03-01T05:43:56;17.52;;;10.57;;
12308;SDS011;6217;48.150;17.142;2023-03-01T05:48:03;15.93;;;9.75;;
12308;SDS011;6217;48.150;17.142;2023-03-01T05:52:10;20.80;;;11.52;;
12308;SDS011;6217;48.150;17.142;2023-03-01T05:56:16;21.85;;;10.50;;
12308;SDS011;6217;48.150;17.142;2023-03-01T06:00:22;15.88;;;10.20;;
12308;SDS011;6217;48.150;17.142;2023-03-01T06:04:28;19.45;;;11.43;;
12308;SDS011;6217;48.150;17.142;2023-03-01T06:08:34;16.63;;;10.48;;
12308;SDS011;6217;48.150;17.142;2023-03-01T06:12:40;21.85;;;11.05;;
12308;SDS011;6217;48.150;17.142;2023-03-01T06:16:47;18.00;;;11.50;;
12308;SDS011;6217;48.150;17.142;2023-03-01T06:20:53;19.27;;;12.30;;
12308;SDS011;6217;48.150;17.142;2023-03-01T06:25:01;18.20;;;11.98;;
12308;SDS011;6217;48.150;17.142;2023-03-01T06:29:07;18.13;;;11.90;;
12308;SDS011;6217;48.150;17.142;2023-03-01T06:33:13;23.00;;;12.38;;
12308;SDS011;6217;48.150;17.142;2023-03-01T06:37:19;16.33;;;12.00;;
12308;SDS011;6217;48.150;17.142;2023-03-01T06:41:25;26.15;;;13.32;;
12308;SDS011;6217;48.150;17.142;2023-03-01T06:45:31;24.25;;;14.23;;
12308;SDS011;6217;48.150;17.142;2023-03-01T06:49:37;15.90;;;12.45;;
12308;SDS011;6217;48.150;17.142;2023-03-01T06:53:43;24.08;;;12.13;;
12308;SDS011;6217;48.150;17.142;2023-03-01T06:58:00;21.65;;;12.10;;
12308;SDS011;6217;48.150;17.142;2023-03-01T07:02:11;19.77;;;12.63;;
12308;SDS011;6217;48.150;17.142;2023-03-01T07:06:18;20.30;;;12.55;;
12308;SDS011;6217;48.150;17.142;2023-03-01T07:10:24;20.45;;;12.40;;
12308;SDS011;6217;48.150;17.142;2023-03-01T07:14:30;22.77;;;12.48;;
12308;SDS011;6217;48.150;17.142;2023-03-01T07:18:36;17.60;;;10.98;;
12308;SDS011;6217;48.150;17.142;2023-03-01T07:22:42;21.90;;;13.13;;
12308;SDS011;6217;48.150;17.142;2023-03-01T07:26:49;17.27;;;10.70;;
12308;SDS011;6217;48.150;17.142;2023-03-01T07:31:00;20.95;;;13.30;;
12308;SDS011;6217;48.150;17.142;2023-03-01T07:35:08;22.88;;;12.27;;
12308;SDS011;6217;48.150;17.142;2023-03-01T07:39:14;17.17;;;10.95;;
12308;SDS011;6217;48.150;17.142;2023-03-01T07:43:20;22.85;;;11.10;;
12308;SDS011;6217;48.150;17.142;2023-03-01T07:47:25;19.35;;;12.35;;
12308;SDS011;6217;48.150;17.142;2023-03-01T07:51:31;17.77;;;11.80;;
12308;SDS011;6217;48.150;17.142;2023-03-01T07:55:37;22.42;;;11.27;;
12308;SDS011;6217;48.150;17.142;2023-03-01T07:59:43;14.70;;;10.52;;
12308;SDS011;6217;48.150;17.142;2023-03-01T08:03:50;21.00;;;11.77;;
12308;SDS011;6217;48.150;17.142;2023-03-01T08:07:56;21.65;;;12.90;;
12308;SDS011;6217;48.150;17.142;2023-03-01T08:12:01;20.75;;;12.15;;
12308;SDS011;6217;48.150;17.142;2023-03-01T08:16:10;22.88;;;13.25;;
12308;SDS011;6217;48.150;17.142;2023-03-01T08:20:18;18.67;;;11.10;;
12308;SDS011;6217;48.150;17.142;2023-03-01T08:24:24;19.60;;;11.27;;
12308;SDS011;6217;48.150;17.142;2023-03-01T08:28:30;19.58;;;11.13;;
12308;SDS011;6217;48.150;17.142;2023-03-01T08:32:37;18.48;;;12.23;;
12308;SDS011;6217;48.150;17.142;2023-03-01T08:36:45;20.50;;;12.77;;
12308;SDS011;6217;48.150;17.142;2023-03-01T08:40:51;17.70;;;11.27;;
12308;SDS011;6217;48.150;17.142;2023-03-01T08:44:57;19.48;;;11.50;;
12308;SDS011;6217;48.150;17.142;2023-03-01T08:49:04;17.23;;;11.90;;
12308;SDS011;6217;48.150;17.142;2023-03-01T08:53:12;19.75;;;12.68;;
12308;SDS011;6217;48.150;17.142;2023-03-01T08:57:18;16.60;;;11.68;;
12308;SDS011;6217;48.150;17.142;2023-03-01T09:01:24;21.80;;;12.18;;
12308;SDS011;6217;48.150;17.142;2023-03-01T09:05:33;18.48;;;12.90;;
12308;SDS011;6217;48.150;17.142;2023-03-01T09:09:39;16.38;;;10.57;;
12308;SDS011;6217;48.150;17.142;2023-03-01T09:13:45;13.65;;;9.57;;
12308;SDS011;6217;48.150;17.142;2023-03-01T09:17:53;13.05;;;10.48;;
12308;SDS011;6217;48.150;17.142;2023-03-01T09:21:59;18.67;;;12.35;;
12308;SDS011;6217;48.150;17.142;2023-03-01T09:26:05;17.83;;;12.00;;
12308;SDS011;6217;48.150;17.142;2023-03-01T09:30:14;14.95;;;9.27;;
12308;SDS011;6217;48.150;17.142;2023-03-01T09:34:20;12.27;;;9.77;;
12308;SDS011;6217;48.150;17.142;2023-03-01T09:38:28;18.42;;;9.88;;
12308;SDS011;6217;48.150;17.142;2023-03-01T09:42:35;20.90;;;11.43;;
12308;SDS011;6217;48.150;17.142;2023-03-01T09:46:51;17.02;;;11.52;;
12308;SDS011;6217;48.150;17.142;2023-03-01T09:50:58;13.30;;;9.10;;
12308;SDS011;6217;48.150;17.142;2023-03-01T09:55:12;14.13;;;8.65;;
12308;SDS011;6217;48.150;17.142;2023-03-01T10:08:54;11.93;;;7.78;;
12308;SDS011;6217;48.150;17.142;2023-03-01T10:17:38;12.65;;;9.32;;
12308;SDS011;6217;48.150;17.142;2023-03-01T10:22:16;15.35;;;9.02;;
12308;SDS011;6217;48.150;17.142;2023-03-01T10:26:32;9.20;;;8.15;;
12308;SDS011;6217;48.150;17.142;2023-03-01T10:30:50;15.77;;;8.85;;
12308;SDS011;6217;48.150;17.142;2023-03-01T10:34:57;12.77;;;6.82;;
12308;SDS011;6217;48.150;17.142;2023-03-01T10:39:04;10.10;;;7.65;;
12308;SDS011;6217;48.150;17.142;2023-03-01T10:47:37;7.72;;;6.45;;
12308;SDS011;6217;48.150;17.142;2023-03-01T10:51:44;10.25;;;6.65;;
12308;SDS011;6217;48.150;17.142;2023-03-01T10:55:56;10.98;;;7.82;;
12308;SDS011;6217;48.150;17.142;2023-03-01T11:00:24;12.27;;;8.48;;
12308;SDS011;6217;48.150;17.142;2023-03-01T11:04:31;11.40;;;8.43;;
12308;SDS011;6217;48.150;17.142;2023-03-01T11:08:47;12.77;;;8.20;;
12308;SDS011;6217;48.150;17.142;2023-03-01T11:13:05;12.48;;;8.27;;
12308;SDS011;6217;48.150;17.142;2023-03-01T11:17:25;11.52;;;8.52;;
12308;SDS011;6217;48.150;17.142;2023-03-01T11:26:05;15.32;;;9.80;;
12308;SDS011;6217;48.150;17.142;2023-03-01T11:30:20;11.75;;;8.40;;
12308;SDS011;6217;48.150;17.142;2023-03-01T11:34:43;12.98;;;9.05;;
12308;SDS011;6217;48.150;17.142;2023-03-01T11:39:20;13.82;;;8.30;;
12308;SDS011;6217;48.150;17.142;2023-03-01T11:57:20;9.68;;;7.82;;
12308;SDS011;6217;48.150;17.142;2023-03-01T12:38:48;11.50;;;9.20;;
12308;SDS011;6217;48.150;17.142;2023-03-01T12:43:27;10.15;;;8.98;;
12308;SDS011;6217;48.150;17.142;2023-03-01T12:47:57;11.75;;;8.43;;
12308;SDS011;6217;48.150;17.142;2023-03-01T12:52:52;11.73;;;8.18;;
12308;SDS011;6217;48.150;17.142;2023-03-01T13:10:39;10.30;;;8.82;;
12308;SDS011;6217;48.150;17.142;2023-03-01T13:14:54;11.10;;;7.40;;
12308;SDS011;6217;48.150;17.142;2023-03-01T13:19:06;9.90;;;8.10;;
12308;SDS011;6217;48.150;17.142;2023-03-01T13:27:28;10.73;;;7.97;;
12308;SDS011;6217;48.150;17.142;2023-03-01T13:35:44;11.77;;;7.40;;
12308;SDS011;6217;48.150;17.142;2023-03-01T13:39:50;11.70;;;7.95;;
12308;SDS011;6217;48.150;17.142;2023-03-01T13:43:56;10.15;;;7.03;;
12308;SDS011;6217;48.150;17.142;2023-03-01T13:48:21;8.85;;;7.28;;
12308;SDS011;6217;48.150;17.142;2023-03-01T13:52:43;12.05;;;6.75;;
12308;SDS011;6217;48.150;17.142;2023-03-01T13:57:00;11.10;;;6.07;;
12308;SDS011;6217;48.150;17.142;2023-03-01T14:01:18;10.48;;;6.68;;
12308;SDS011;6217;48.150;17.142;2023-03-01T14:05:41;7.65;;;5.47;;
12308;SDS011;6217;48.150;17.142;2023-03-01T14:10:04;13.98;;;6.85;;
12308;SDS011;6217;48.150;17.142;2023-03-01T14:18:40;9.00;;;6.53;;
12308;SDS011;6217;48.150;17.142;2023-03-01T14:23:22;7.88;;;5.45;;
12308;SDS011;6217;48.150;17.142;2023-03-01T14:27:33;25.80;;;8.93;;
12308;SDS011;6217;48.150;17.142;2023-03-01T14:31:44;8.00;;;5.72;;
12308;SDS011;6217;48.150;17.142;2023-03-01T14:36:02;10.55;;;5.63;;
12308;SDS011;6217;48.150;17.142;2023-03-01T14:40:30;8.82;;;5.68;;
12308;SDS011;6217;48.150;17.142;2023-03-01T14:44:45;8.80;;;4.93;;
12308;SDS011;6217;48.150;17.142;2023-03-01T14:48:54;5.82;;;4.25;;
12308;SDS011;6217;48.150;17.142;2023-03-01T14:53:07;4.60;;;3.35;;
12308;SDS011;6217;48.150;17.142;2023-03-01T14:57:26;7.07;;;4.05;;
12308;SDS011;6217;48.150;17.142;2023-03-01T15:01:32;5.70;;;3.47;;
12308;SDS011;6217;48.150;17.142;2023-03-01T15:05:38;6.43;;;4.10;;
12308;SDS011;6217;48.150;17.142;2023-03-01T15:09:47;10.75;;;4.60;;
12308;SDS011;6217;48.150;17.142;2023-03-01T15:13:53;7.80;;;4.47;;
12308;SDS011;6217;48.150;17.142;2023-03-01T15:18:04;7.13;;;3.55;;
12308;SDS011;6217;48.150;17.142;2023-03-01T15:22:19;6.85;;;3.55;;
12308;SDS011;6217;48.150;17.142;2023-03-01T15:26:29;8.88;;;3.60;;
12308;SDS011;6217;48.150;17.142;2023-03-01T15:30:39;5.47;;;3.58;;
12308;SDS011;6217;48.150;17.142;2023-03-01T15:34:45;5.20;;;3.65;;
12308;SDS011;6217;48.150;17.142;2023-03-01T15:38:53;6.03;;;3.25;;
12308;SDS011;6217;48.150;17.142;2023-03-01T15:43:03;4.47;;;2.95;;
12308;SDS011;6217;48.150;17.142;2023-03-01T15:47:25;6.40;;;3.40;;
12308;SDS011;6217;48.150;17.142;2023-03-01T15:51:35;4.40;;;2.92;;
12308;SDS011;6217;48.150;17.142;2023-03-01T15:55:42;9.82;;;3.90;;
12308;SDS011;6217;48.150;17.142;2023-03-01T15:59:49;5.28;;;3.58;;
12308;SDS011;6217;48.150;17.142;2023-03-01T16:03:54;10.38;;;3.95;;
12308;SDS011;6217;48.150;17.142;2023-03-01T16:08:02;10.75;;;3.20;;
12308;SDS011;6217;48.150;17.142;2023-03-01T16:12:15;7.53;;;4.20;;
12308;SDS011;6217;48.150;17.142;2023-03-01T16:16:21;10.20;;;4.35;;
12308;SDS011;6217;48.150;17.142;2023-03-01T16:20:28;8.10;;;4.40;;
12308;SDS011;6217;48.150;17.142;2023-03-01T16:24:34;7.25;;;3.83;;
12308;SDS011;6217;48.150;17.142;2023-03-01T16:28:41;11.18;;;4.55;;
12308;SDS011;6217;48.150;17.142;2023-03-01T16:32:48;8.07;;;4.32;;
12308;SDS011;6217;48.150;17.142;2023-03-01T16:36:55;7.00;;;4.25;;
12308;SDS011;6217;48.150;17.142;2023-03-01T16:41:01;6.03;;;3.78;;
12308;SDS011;6217;48.150;17.142;2023-03-01T16:45:07;8.63;;;4.43;;
12308;SDS011;6217;48.150;17.142;2023-03-01T16:49:14;10.52;;;4.18;;
12308;SDS011;6217;48.150;17.142;2023-03-01T16:53:19;12.60;;;4.45;;
12308;SDS011;6217;48.150;17.142;2023-03-01T16:57:25;11.15;;;4.15;;
12308;SDS011;6217;48.150;17.142;2023-03-01T17:01:31;11.88;;;4.65;;
12308;SDS011;6217;48.150;17.142;2023-03-01T17:05:46;11.27;;;3.95;;
12308;SDS011;6217;48.150;17.142;2023-03-01T17:09:52;7.57;;;4.30;;
12308;SDS011;6217;48.150;17.142;2023-03-01T17:13:58;7.65;;;4.78;;
12308;SDS011;6217;48.150;17.142;2023-03-01T17:18:04;12.02;;;4.78;;
12308;SDS011;6217;48.150;17.142;2023-03-01T17:22:10;11.60;;;4.10;;
12308;SDS011;6217;48.150;17.142;2023-03-01T17:26:18;7.35;;;4.25;;
12308;SDS011;6217;48.150;17.142;2023-03-01T17:30:24;11.30;;;5.85;;
12308;SDS011;6217;48.150;17.142;2023-03-01T17:34:31;25.75;;;6.28;;
12308;SDS011;6217;48.150;17.142;2023-03-01T17:38:37;12.30;;;5.45;;
12308;SDS011;6217;48.150;17.142;2023-03-01T17:42:43;17.20;;;6.35;;
12308;SDS011;6217;48.150;17.142;2023-03-01T17:46:49;11.52;;;5.03;;
12308;SDS011;6217;48.150;17.142;2023-03-01T17:50:55;14.57;;;6.07;;
12308;SDS011;6217;48.150;17.142;2023-03-01T17:55:02;12.23;;;6.65;;
12308;SDS011;6217;48.150;17.142;2023-03-01T17:59:09;15.43;;;7.30;;
12308;SDS011;6217;48.150;17.142;2023-03-01T18:03:15;12.60;;;7.25;;
12308;SDS011;6217;48.150;17.142;2023-03-01T18:07:21;18.92;;;8.10;;
12308;SDS011;6217;48.150;17.142;2023-03-01T18:11:27;15.70;;;7.70;;
12308;SDS011;6217;48.150;17.142;2023-03-01T18:15:33;17.50;;;8.77;;
12308;SDS011;6217;48.150;17.142;2023-03-01T18:19:39;14.60;;;9.77;;
12308;SDS011;6217;48.150;17.142;2023-03-01T18:23:45;14.85;;;9.85;;
12308;SDS011;6217;48.150;17.142;2023-03-01T18:27:51;18.60;;;8.85;;
12308;SDS011;6217;48.150;17.142;2023-03-01T18:31:57;18.02;;;10.55;;
12308;SDS011;6217;48.150;17.142;2023-03-01T18:36:03;16.85;;;10.40;;
12308;SDS011;6217;48.150;17.142;2023-03-01T18:40:11;20.38;;;10.95;;
12308;SDS011;6217;48.150;17.142;2023-03-01T18:44:18;15.93;;;10.75;;
12308;SDS011;6217;48.150;17.142;2023-03-01T18:48:24;22.48;;;12.07;;
12308;SDS011;6217;48.150;17.142;2023-03-01T18:52:29;20.08;;;11.80;;
12308;SDS011;6217;48.150;17.142;2023-03-01T18:56:35;22.10;;;11.88;;
12308;SDS011;6217;48.150;17.142;2023-03-01T19:00:41;26.40;;;11.60;;
12308;SDS011;6217;48.150;17.142;2023-03-01T19:04:48;20.67;;;10.70;;
12308;SDS011;6217;48.150;17.142;2023-03-01T19:08:55;29.40;;;11.70;;
12308;SDS011;6217;48.150;17.142;2023-03-01T19:13:01;14.23;;;11.20;;
12308;SDS011;6217;48.150;17.142;2023-03-01T19:17:07;20.05;;;11.82;;
12308;SDS011;6217;48.150;17.142;2023-03-01T19:21:13;18.75;;;11.32;;
12308;SDS011;6217;48.150;17.142;2023-03-01T19:25:19;31.70;;;12.13;;
12308;SDS011;6217;48.150;17.142;2023-03-01T19:29:25;23.60;;;12.98;;
12308;SDS011;6217;48.150;17.142;2023-03-01T19:33:31;26.60;;;14.45;;
12308;SDS011;6217;48.150;17.142;2023-03-01T19:37:38;20.17;;;12.43;;
12308;SDS011;6217;48.150;17.142;2023-03-01T19:41:44;28.35;;;11.32;;
12308;SDS011;6217;48.150;17.142;2023-03-01T19:45:53;23.02;;;13.70;;
12308;SDS011;6217;48.150;17.142;2023-03-01T19:50:00;20.58;;;12.65;;
12308;SDS011;6217;48.150;17.142;2023-03-01T19:54:06;20.27;;;12.43;;
12308;SDS011;6217;48.150;17.142;2023-03-01T19:58:13;19.38;;;11.32;;
12308;SDS011;6217;48.150;17.142;2023-03-01T20:02:19;25.13;;;14.45;;
12308;SDS011;6217;48.150;17.142;2023-03-01T20:06:25;24.35;;;13.55;;
12308;SDS011;6217;48.150;17.142;2023-03-01T20:10:33;20.05;;;13.13;;
12308;SDS011;6217;48.150;17.142;2023-03-01T20:14:39;18.27;;;12.27;;
12308;SDS011;6217;48.150;17.142;2023-03-01T20:18:45;16.90;;;10.50;;
12308;SDS011;6217;48.150;17.142;2023-03-01T20:22:51;22.58;;;13.77;;
12308;SDS011;6217;48.150;17.142;2023-03-01T20:26:57;24.35;;;12.23;;
12308;SDS011;6217;48.150;17.142;2023-03-01T20:31:07;24.35;;;13.60;;
12308;SDS011;6217;48.150;17.142;2023-03-01T20:35:15;23.30;;;14.13;;
12308;SDS011;6217;48.150;17.142;2023-03-01T20:39:21;28.42;;;14.18;;
12308;SDS011;6217;48.150;17.142;2023-03-01T20:43:27;26.42;;;13.82;;
12308;SDS011;6217;48.150;17.142;2023-03-01T20:47:33;23.75;;;13.82;;
12308;SDS011;6217;48.150;17.142;2023-03-01T20:51:39;26.80;;;16.02;;
12308;SDS011;6217;48.150;17.142;2023-03-01T20:55:45;25.95;;;15.23;;
12308;SDS011;6217;48.150;17.142;2023-03-01T20:59:51;22.85;;;14.38;;
12308;SDS011;6217;48.150;17.142;2023-03-01T21:03:57;21.15;;;13.43;;
12308;SDS011;6217;48.150;17.142;2023-03-01T21:08:03;21.20;;;12.18;;
12308;SDS011;6217;48.150;17.142;2023-03-01T21:12:10;22.75;;;13.63;;
12308;SDS011;6217;48.150;17.142;2023-03-01T21:16:16;20.17;;;11.68;;
12308;SDS011;6217;48.150;17.142;2023-03-01T21:20:23;27.75;;;14.20;;
12308;SDS011;6217;48.150;17.142;2023-03-01T21:24:30;25.15;;;14.50;;
12308;SDS011;6217;48.150;17.142;2023-03-01T21:28:37;24.48;;;13.48;;
12308;SDS011;6217;48.150;17.142;2023-03-01T21:32:43;31.20;;;15.73;;
12308;SDS011;6217;48.150;17.142;2023-03-01T21:36:49;21.27;;;12.68;;
12308;SDS011;6217;48.150;17.142;2023-03-01T21:40:55;28.45;;;13.98;;
12308;SDS011;6217;48.150;17.142;2023-03-01T21:45:01;24.50;;;12.95;;
12308;SDS011;6217;48.150;17.142;2023-03-01T21:49:08;19.77;;;11.95;;
12308;SDS011;6217;48.150;17.142;2023-03-01T21:53:15;24.95;;;11.13;;
12308;SDS011;6217;48.150;17.142;2023-03-01T21:57:21;20.70;;;11.70;;
12308;SDS011;6217;48.150;17.142;2023-03-01T22:01:27;23.83;;;11.73;;
12308;SDS011;6217;48.150;17.142;2023-03-01T22:05:33;20.58;;;10.20;;
12308;SDS011;6217;48.150;17.142;2023-03-01T22:09:39;19.08;;;11.23;;
12308;SDS011;6217;48.150;17.142;2023-03-01T22:13:46;20.00;;;11.90;;
12308;SDS011;6217;48.150;17.142;2023-03-01T22:17:56;18.13;;;11.18;;
12308;SDS011;6217;48.150;17.142;2023-03-01T22:22:02;21.88;;;11.45;;
12308;SDS011;6217;48.150;17.142;2023-03-01T22:26:08;17.55;;;11.05;;
12308;SDS011;6217;48.150;17.142;2023-03-01T22:30:26;20.45;;;11.35;;
12308;SDS011;6217;48.150;17.142;2023-03-01T22:34:32;19.88;;;10.20;;
12308;SDS011;6217;48.150;17.142;2023-03-01T22:38:38;21.10;;;11.52;;
12308;SDS011;6217;48.150;17.142;2023-03-01T22:42:44;22.73;;;10.77;;
12308;SDS011;6217;48.150;17.142;2023-03-01T22:46:50;22.08;;;10.15;;
12308;SDS011;6217;48.150;17.142;2023-03-01T22:50:57;22.95;;;12.00;;
12308;SDS011;6217;48.150;17.142;2023-03-01T22:55:03;21.33;;;10.90;;
12308;SDS011;6217;48.150;17.142;2023-03-01T22:59:10;22.30;;;12.48;;
12308;SDS011;6217;48.150;17.142;2023-03-01T23:03:19;22.98;;;11.60;;
12308;SDS011;6217;48.150;17.142;2023-03-01T23:07:25;24.15;;;12.07;;
12308;SDS011;6217;48.150;17.142;2023-03-01T23:11:31;23.40;;;12.20;;
12308;SDS011;6217;48.150;17.142;2023-03-01T23:15:37;21.90;;;11.35;;
12308;SDS011;6217;48.150;17.142;2023-03-01T23:19:46;21.27;;;11.57;;
12308;SDS011;6217;48.150;17.142;2023-03-01T23:23:55;19.20;;;12.70;;
12308;SDS011;6217;48.150;17.142;2023-03-01T23:28:01;23.05;;;12.18;;
12308;SDS011;6217;48.150;17.142;2023-03-01T23:32:08;20.52;;;12.00;;
12308;SDS011;6217;48.150;17.142;2023-03-01T23:36:19;20.40;;;12.73;;
12308;SDS011;6217;48.150;17.142;2023-03-01T23:40:28;20.15;;;11.73;;
12308;SDS011;6217;48.150;17.142;2023-03-01T23:44:34;20.25;;;12.02;;
12308;SDS011;6217;48.150;17.142;2023-03-01T23:48:43;18.42;;;12.48;;
12308;SDS011;6217;48.150;17.142;2023-03-01T23:52:49;18.33;;;12.57;;
12308;SDS011;6217;48.150;17.142;2023-03-01T23:56:55;18.30;;;11.05;;
